Isabel Y Andres — EA2246 — position and weather

sailwx.info

Track history (hours):
 
Tides and Currents Weather Stations Pressure Air Temp Water Temp Dewpoint Dewpoint Depression Visibility Wind Speed Wind Dir Waves Ship Positions

Isabel Y Andres

Last reported at 2018-Jun-22 15:06 UTC. Time now 2018-Jun-24 20:45 UTC.
Position N 37°49' W 000°45'.

Length 22 m.

Type: Other ship. MMSI: 224088940.

Date/timePositionNaut miles runAvg speedWind from/ knotsBaromVisibWave heightAir tempDewpointWater temp
2018-Jun-22 15:06N 37°49' W 000°45'0 1.5
2018-Jun-22 14:59N 37°49' W 000°45'5 9.6
2018-Jun-22 14:30N 37°46' W 000°41'5 9.6
2018-Jun-22 14:00N 37°42' W 000°37'5 9.8
2018-Jun-22 13:30N 37°38' W 000°33'5 9.6
2018-Jun-22 13:00N 37°35' W 000°29'1 1.2
2018-Jun-22 12:23N 37°34' W 000°28'1 1.3
2018-Jun-22 11:52N 37°34' W 000°28'1 2.7
2018-Jun-22 11:30N 37°35' W 000°27'1 2.7
2018-Jun-22 10:57N 37°35' W 000°25'1 2.9
2018-Jun-22 10:30N 37°35' W 000°23'2 2.8
2018-Jun-22 09:57N 37°36' W 000°21'1 2.8
2018-Jun-22 09:30N 37°35' W 000°20'1 2.9
2018-Jun-22 09:00N 37°36' W 000°18'2 2.9
2018-Jun-22 08:29N 37°37' W 000°16'1 2.2
2018-Jun-22 08:00N 37°37' W 000°15'1 2.9
2018-Jun-22 07:30N 37°36' W 000°16'1 2.9
2018-Jun-22 07:00N 37°36' W 000°18'1 2.9
2018-Jun-22 06:30N 37°36' W 000°20'1 2.9
2018-Jun-22 06:00N 37°36' W 000°22'1 2.6
2018-Jun-22 05:29N 37°35' W 000°23'2 4.2
2018-Jun-22 05:00N 37°35' W 000°26'510.2
2018-Jun-22 04:30N 37°38' W 000°31'510.3
2018-Jun-22 04:00N 37°42' W 000°35'510.4
2018-Jun-22 03:30N 37°45' W 000°40'510.4
2018-Jun-22 03:00N 37°49' W 000°45'0 0.0
2018-Jun-21 15:21N 37°49' W 000°45'0 0.4
2018-Jun-21 15:00N 37°49' W 000°45'5 9.9
2018-Jun-21 14:30N 37°46' W 000°41'510.1
2018-Jun-21 14:00N 37°42' W 000°36'710.2
2018-Jun-21 13:18N 37°37' W 000°30'3 9.7
2018-Jun-21 12:58N 37°35' W 000°27'9 1.7
2018-Jun-21 07:48N 37°35' W 000°16'1 2.8
2018-Jun-21 07:26N 37°35' W 000°17'1 2.8
2018-Jun-21 06:59N 37°35' W 000°19'1 2.8
2018-Jun-21 06:30N 37°35' W 000°20'1 2.8
2018-Jun-21 06:00N 37°35' W 000°22'1 2.4
2018-Jun-21 05:29N 37°35' W 000°24'2 4.3
2018-Jun-21 04:58N 37°35' W 000°27'510.1
2018-Jun-21 04:30N 37°38' W 000°31'510.1
2018-Jun-21 04:00N 37°42' W 000°35'510.3
2018-Jun-21 03:30N 37°45' W 000°40'510.4
2018-Jun-21 03:00N 37°49' W 000°45'0 0.0
2018-Jun-20 15:11N 37°49' W 000°45'0 0.8
2018-Jun-20 14:59N 37°49' W 000°45'5 9.7
2018-Jun-20 14:30N 37°46' W 000°41'510.2
2018-Jun-20 13:59N 37°42' W 000°36'510.5
2018-Jun-20 13:29N 37°39' W 000°32'12 1.9
2018-Jun-20 07:17N 37°35' W 000°17'1 2.8
2018-Jun-20 06:55N 37°35' W 000°19'1 2.9
2018-Jun-20 06:30N 37°35' W 000°20'1 2.9
2018-Jun-20 06:00N 37°35' W 000°22'1 2.6
2018-Jun-20 05:30N 37°35' W 000°24'2 3.9
2018-Jun-20 05:00N 37°35' W 000°26'510.1
2018-Jun-20 04:30N 37°38' W 000°31'510.3
2018-Jun-20 04:00N 37°42' W 000°35'510.5
2018-Jun-20 03:30N 37°45' W 000°40'510.5
2018-Jun-20 03:00N 37°49' W 000°45'0 0.0
2018-Jun-19 15:07N 37°49' W 000°45'0 0.0
2018-Jun-19 14:59N 37°49' W 000°45'4 7.7
2018-Jun-19 14:30N 37°47' W 000°42'5 9.5
2018-Jun-19 14:00N 37°43' W 000°38'5 9.7
2018-Jun-19 13:30N 37°40' W 000°34'13 2.0
2018-Jun-19 07:02N 37°35' W 000°18'1 2.9
2018-Jun-19 06:50N 37°36' W 000°19'1 2.8
2018-Jun-19 06:28N 37°36' W 000°20'1 2.9
2018-Jun-19 06:00N 37°36' W 000°22'1 2.7
2018-Jun-19 05:30N 37°35' W 000°23'2 4.3
2018-Jun-19 05:00N 37°35' W 000°26'5 9.8
2018-Jun-19 04:30N 37°38' W 000°31'510.0
2018-Jun-19 04:00N 37°42' W 000°35'510.2
2018-Jun-19 03:30N 37°45' W 000°40'510.2
2018-Jun-19 03:00N 37°49' W 000°45'1 0.1
2018-Jun-18 15:26N 37°49' W 000°45'0 0.0
2018-Jun-18 15:00N 37°49' W 000°45'4 7.2
2018-Jun-18 14:30N 37°47' W 000°42'5 9.7
2018-Jun-18 14:00N 37°43' W 000°38'5 9.7
2018-Jun-18 13:30N 37°40' W 000°33'5 9.4
2018-Jun-18 12:58N 37°36' W 000°29'2 4.2
2018-Jun-18 12:26N 37°35' W 000°27'0 0.8
2018-Jun-18 11:59N 37°35' W 000°27'2 2.7
2018-Jun-18 11:23N 37°35' W 000°25'1 2.9
2018-Jun-18 11:00N 37°35' W 000°24'2 2.9
2018-Jun-18 10:21N 37°36' W 000°21'2 2.8
2018-Jun-18 09:49N 37°35' W 000°19'1 2.8
2018-Jun-18 09:30N 37°35' W 000°18'3 3.6
2018-Jun-18 08:39N 37°35' W 000°14'0 1.0
2018-Jun-18 08:26N 37°35' W 000°15'2 2.9
2018-Jun-18 07:51N 37°35' W 000°17'1 3.0
2018-Jun-18 07:30N 37°35' W 000°18'2 2.9
2018-Jun-18 06:56N 37°36' W 000°20'1 2.9
2018-Jun-18 06:28N 37°36' W 000°22'2 2.9
2018-Jun-18 05:52N 37°35' W 000°24'0 0.4
2018-Jun-18 05:29N 37°35' W 000°24'2 4.7
2018-Jun-18 05:00N 37°35' W 000°27'5 9.7
2018-Jun-18 04:30N 37°39' W 000°31'510.0
2018-Jun-18 04:00N 37°42' W 000°36'510.2
2018-Jun-18 03:30N 37°46' W 000°40'510.2
2018-Jun-18 03:00N 37°49' W 000°45'  
2018-Jun-15 16:03N 37°49' W 000°45'0 0.2
2018-Jun-15 16:00N 37°49' W 000°45'0 0.0
2018-Jun-15 15:30N 37°49' W 000°45'0 0.0
2018-Jun-15 15:00N 37°49' W 000°45'3 5.5
2018-Jun-15 14:30N 37°47' W 000°43'4 8.9
2018-Jun-15 14:00N 37°44' W 000°39'5 9.5
2018-Jun-15 13:30N 37°41' W 000°35'5 9.8
2018-Jun-15 13:00N 37°37' W 000°30'4 7.5
2018-Jun-15 12:30N 37°35' W 000°27'10 2.2
2018-Jun-15 08:03N 37°35' W 000°14'0 2.9
2018-Jun-15 07:59N 37°35' W 000°15'2 2.9
2018-Jun-15 07:07N 37°35' W 000°18'0 2.9
2018-Jun-15 06:58N 37°35' W 000°18'2 2.9
2018-Jun-15 06:23N 37°36' W 000°20'1 2.9
2018-Jun-15 05:57N 37°36' W 000°22'1 2.7
2018-Jun-15 05:30N 37°35' W 000°23'2 3.8
2018-Jun-15 05:00N 37°35' W 000°26'5 9.9
2018-Jun-15 04:30N 37°38' W 000°31'510.4
2018-Jun-15 04:00N 37°42' W 000°35'510.2
2018-Jun-15 03:30N 37°45' W 000°40'510.2
2018-Jun-15 03:00N 37°49' W 000°45'1 0.1
2018-Jun-14 15:25N 37°49' W 000°45'0 0.0
2018-Jun-14 15:00N 37°49' W 000°45'4 7.1
2018-Jun-14 14:30N 37°47' W 000°42'5 9.5
2018-Jun-14 14:00N 37°43' W 000°38'5 9.9
2018-Jun-14 13:30N 37°40' W 000°33'510.1
2018-Jun-14 12:57N 37°36' W 000°28'3 1.8
2018-Jun-14 11:19N 37°35' W 000°25'1 2.9
2018-Jun-14 10:53N 37°35' W 000°23'1 2.9
2018-Jun-14 10:30N 37°36' W 000°22'1 2.9
2018-Jun-14 10:00N 37°36' W 000°20'5 2.5
2018-Jun-14 08:09N 37°35' W 000°14'1 2.9
2018-Jun-14 07:51N 37°35' W 000°15'1 3.0
2018-Jun-14 07:25N 37°35' W 000°17'1 3.0
2018-Jun-14 07:00N 37°35' W 000°18'1 2.9
2018-Jun-14 06:30N 37°36' W 000°20'1 2.9
2018-Jun-14 06:00N 37°36' W 000°22'1 2.5
2018-Jun-14 05:30N 37°35' W 000°24'2 4.9
2018-Jun-14 05:00N 37°35' W 000°27'510.1
2018-Jun-14 04:30N 37°39' W 000°31'510.1
2018-Jun-14 04:00N 37°42' W 000°36'5 9.9
2018-Jun-14 03:30N 37°46' W 000°40'510.0
2018-Jun-14 03:00N 37°49' W 000°45'0 0.0
2018-Jun-13 15:48N 37°49' W 000°45'0 0.0
2018-Jun-13 15:31N 37°49' W 000°45'0 0.3
2018-Jun-13 15:00N 37°49' W 000°45'4 8.0
2018-Jun-13 14:30N 37°46' W 000°42'5 9.9
2018-Jun-13 14:00N 37°43' W 000°37'5 9.9
2018-Jun-13 13:30N 37°40' W 000°33'510.1
2018-Jun-13 12:58N 37°36' W 000°28'1 2.9
2018-Jun-13 12:30N 37°35' W 000°26'0 0.0
2018-Jun-13 11:58N 37°35' W 000°26'1 2.6
2018-Jun-13 11:28N 37°35' W 000°25'2 2.9
2018-Jun-13 10:51N 37°35' W 000°23'1 2.8
2018-Jun-13 10:26N 37°36' W 000°21'4 1.4
2018-Jun-13 07:42N 37°35' W 000°16'1 2.9
2018-Jun-13 07:30N 37°35' W 000°17'1 3.0
2018-Jun-13 07:00N 37°36' W 000°19'1 2.9
2018-Jun-13 06:31N 37°36' W 000°21'1 2.9
2018-Jun-13 06:00N 37°35' W 000°22'1 2.8
2018-Jun-13 05:30N 37°35' W 000°24'2 5.0
2018-Jun-13 05:01N 37°36' W 000°27'5 9.8
2018-Jun-13 04:30N 37°39' W 000°32'5 9.7
2018-Jun-13 04:00N 37°42' W 000°36'5 9.8
2018-Jun-13 03:31N 37°46' W 000°41'5 9.8
2018-Jun-13 03:01N 37°49' W 000°45'0 0.0
2018-Jun-12 15:48N 37°49' W 000°45'0 0.0
2018-Jun-12 15:30N 37°49' W 000°45'  
Track history (hours):
 
Tides and Currents Weather Stations Pressure Air Temp Water Temp Dewpoint Dewpoint Depression Visibility Wind Speed Wind Dir Waves Ship Positions

Isabel Y Andres

Last reported at 2018-Jun-22 15:06 UTC. Time now 2018-Jun-24 20:45 UTC.
Position N 37°49' W 000°45'.

Length 22 m.

Type: Other ship. MMSI: 224088940.

Date/timePositionNaut miles runAvg speedWind from/ knotsBaromVisibWave heightAir tempDewpointWater temp
2018-Jun-22 15:06N 37°49' W 000°45'0 1.5
2018-Jun-22 14:59N 37°49' W 000°45'5 9.6
2018-Jun-22 14:30N 37°46' W 000°41'5 9.6
2018-Jun-22 14:00N 37°42' W 000°37'5 9.8
2018-Jun-22 13:30N 37°38' W 000°33'5 9.6
2018-Jun-22 13:00N 37°35' W 000°29'1 1.2
2018-Jun-22 12:23N 37°34' W 000°28'1 1.3
2018-Jun-22 11:52N 37°34' W 000°28'1 2.7
2018-Jun-22 11:30N 37°35' W 000°27'1 2.7
2018-Jun-22 10:57N 37°35' W 000°25'1 2.9
2018-Jun-22 10:30N 37°35' W 000°23'2 2.8
2018-Jun-22 09:57N 37°36' W 000°21'1 2.8
2018-Jun-22 09:30N 37°35' W 000°20'1 2.9
2018-Jun-22 09:00N 37°36' W 000°18'2 2.9
2018-Jun-22 08:29N 37°37' W 000°16'1 2.2
2018-Jun-22 08:00N 37°37' W 000°15'1 2.9
2018-Jun-22 07:30N 37°36' W 000°16'1 2.9
2018-Jun-22 07:00N 37°36' W 000°18'1 2.9
2018-Jun-22 06:30N 37°36' W 000°20'1 2.9
2018-Jun-22 06:00N 37°36' W 000°22'1 2.6
2018-Jun-22 05:29N 37°35' W 000°23'2 4.2
2018-Jun-22 05:00N 37°35' W 000°26'510.2
2018-Jun-22 04:30N 37°38' W 000°31'510.3
2018-Jun-22 04:00N 37°42' W 000°35'510.4
2018-Jun-22 03:30N 37°45' W 000°40'510.4
2018-Jun-22 03:00N 37°49' W 000°45'0 0.0
2018-Jun-21 15:21N 37°49' W 000°45'0 0.4
2018-Jun-21 15:00N 37°49' W 000°45'5 9.9
2018-Jun-21 14:30N 37°46' W 000°41'510.1
2018-Jun-21 14:00N 37°42' W 000°36'710.2
2018-Jun-21 13:18N 37°37' W 000°30'3 9.7
2018-Jun-21 12:58N 37°35' W 000°27'9 1.7
2018-Jun-21 07:48N 37°35' W 000°16'1 2.8
2018-Jun-21 07:26N 37°35' W 000°17'1 2.8
2018-Jun-21 06:59N 37°35' W 000°19'1 2.8
2018-Jun-21 06:30N 37°35' W 000°20'1 2.8
2018-Jun-21 06:00N 37°35' W 000°22'1 2.4
2018-Jun-21 05:29N 37°35' W 000°24'2 4.3
2018-Jun-21 04:58N 37°35' W 000°27'510.1
2018-Jun-21 04:30N 37°38' W 000°31'510.1
2018-Jun-21 04:00N 37°42' W 000°35'510.3
2018-Jun-21 03:30N 37°45' W 000°40'510.4
2018-Jun-21 03:00N 37°49' W 000°45'0 0.0
2018-Jun-20 15:11N 37°49' W 000°45'0 0.8
2018-Jun-20 14:59N 37°49' W 000°45'5 9.7
2018-Jun-20 14:30N 37°46' W 000°41'510.2
2018-Jun-20 13:59N 37°42' W 000°36'510.5
2018-Jun-20 13:29N 37°39' W 000°32'12 1.9
2018-Jun-20 07:17N 37°35' W 000°17'1 2.8
2018-Jun-20 06:55N 37°35' W 000°19'1 2.9
2018-Jun-20 06:30N 37°35' W 000°20'1 2.9
2018-Jun-20 06:00N 37°35' W 000°22'1 2.6
2018-Jun-20 05:30N 37°35' W 000°24'2 3.9
2018-Jun-20 05:00N 37°35' W 000°26'510.1
2018-Jun-20 04:30N 37°38' W 000°31'510.3
2018-Jun-20 04:00N 37°42' W 000°35'510.5
2018-Jun-20 03:30N 37°45' W 000°40'510.5
2018-Jun-20 03:00N 37°49' W 000°45'0 0.0
2018-Jun-19 15:07N 37°49' W 000°45'0 0.0
2018-Jun-19 14:59N 37°49' W 000°45'4 7.7
2018-Jun-19 14:30N 37°47' W 000°42'5 9.5
2018-Jun-19 14:00N 37°43' W 000°38'5 9.7
2018-Jun-19 13:30N 37°40' W 000°34'13 2.0
2018-Jun-19 07:02N 37°35' W 000°18'1 2.9
2018-Jun-19 06:50N 37°36' W 000°19'1 2.8
2018-Jun-19 06:28N 37°36' W 000°20'1 2.9
2018-Jun-19 06:00N 37°36' W 000°22'1 2.7
2018-Jun-19 05:30N 37°35' W 000°23'2 4.3
2018-Jun-19 05:00N 37°35' W 000°26'5 9.8
2018-Jun-19 04:30N 37°38' W 000°31'510.0
2018-Jun-19 04:00N 37°42' W 000°35'510.2
2018-Jun-19 03:30N 37°45' W 000°40'510.2
2018-Jun-19 03:00N 37°49' W 000°45'1 0.1
2018-Jun-18 15:26N 37°49' W 000°45'0 0.0
2018-Jun-18 15:00N 37°49' W 000°45'4 7.2
2018-Jun-18 14:30N 37°47' W 000°42'5 9.7
2018-Jun-18 14:00N 37°43' W 000°38'5 9.7
2018-Jun-18 13:30N 37°40' W 000°33'5 9.4
2018-Jun-18 12:58N 37°36' W 000°29'2 4.2
2018-Jun-18 12:26N 37°35' W 000°27'0 0.8
2018-Jun-18 11:59N 37°35' W 000°27'2 2.7
2018-Jun-18 11:23N 37°35' W 000°25'1 2.9
2018-Jun-18 11:00N 37°35' W 000°24'2 2.9
2018-Jun-18 10:21N 37°36' W 000°21'2 2.8
2018-Jun-18 09:49N 37°35' W 000°19'1 2.8
2018-Jun-18 09:30N 37°35' W 000°18'3 3.6
2018-Jun-18 08:39N 37°35' W 000°14'0 1.0
2018-Jun-18 08:26N 37°35' W 000°15'2 2.9
2018-Jun-18 07:51N 37°35' W 000°17'1 3.0
2018-Jun-18 07:30N 37°35' W 000°18'2 2.9
2018-Jun-18 06:56N 37°36' W 000°20'1 2.9
2018-Jun-18 06:28N 37°36' W 000°22'2 2.9
2018-Jun-18 05:52N 37°35' W 000°24'0 0.4
2018-Jun-18 05:29N 37°35' W 000°24'2 4.7
2018-Jun-18 05:00N 37°35' W 000°27'5 9.7
2018-Jun-18 04:30N 37°39' W 000°31'510.0
2018-Jun-18 04:00N 37°42' W 000°36'510.2
2018-Jun-18 03:30N 37°46' W 000°40'510.2
2018-Jun-18 03:00N 37°49' W 000°45'  
2018-Jun-15 16:03N 37°49' W 000°45'0 0.2
2018-Jun-15 16:00N 37°49' W 000°45'0 0.0
2018-Jun-15 15:30N 37°49' W 000°45'0 0.0
2018-Jun-15 15:00N 37°49' W 000°45'3 5.5
2018-Jun-15 14:30N 37°47' W 000°43'4 8.9
2018-Jun-15 14:00N 37°44' W 000°39'5 9.5
2018-Jun-15 13:30N 37°41' W 000°35'5 9.8
2018-Jun-15 13:00N 37°37' W 000°30'4 7.5
2018-Jun-15 12:30N 37°35' W 000°27'10 2.2
2018-Jun-15 08:03N 37°35' W 000°14'0 2.9
2018-Jun-15 07:59N 37°35' W 000°15'2 2.9
2018-Jun-15 07:07N 37°35' W 000°18'0 2.9
2018-Jun-15 06:58N 37°35' W 000°18'2 2.9
2018-Jun-15 06:23N 37°36' W 000°20'1 2.9
2018-Jun-15 05:57N 37°36' W 000°22'1 2.7
2018-Jun-15 05:30N 37°35' W 000°23'2 3.8
2018-Jun-15 05:00N 37°35' W 000°26'5 9.9
2018-Jun-15 04:30N 37°38' W 000°31'510.4
2018-Jun-15 04:00N 37°42' W 000°35'510.2
2018-Jun-15 03:30N 37°45' W 000°40'510.2
2018-Jun-15 03:00N 37°49' W 000°45'1 0.1
2018-Jun-14 15:25N 37°49' W 000°45'0 0.0
2018-Jun-14 15:00N 37°49' W 000°45'4 7.1
2018-Jun-14 14:30N 37°47' W 000°42'5 9.5
2018-Jun-14 14:00N 37°43' W 000°38'5 9.9
2018-Jun-14 13:30N 37°40' W 000°33'510.1
2018-Jun-14 12:57N 37°36' W 000°28'3 1.8
2018-Jun-14 11:19N 37°35' W 000°25'1 2.9
2018-Jun-14 10:53N 37°35' W 000°23'1 2.9
2018-Jun-14 10:30N 37°36' W 000°22'1 2.9
2018-Jun-14 10:00N 37°36' W 000°20'5 2.5
2018-Jun-14 08:09N 37°35' W 000°14'1 2.9
2018-Jun-14 07:51N 37°35' W 000°15'1 3.0
2018-Jun-14 07:25N 37°35' W 000°17'1 3.0
2018-Jun-14 07:00N 37°35' W 000°18'1 2.9
2018-Jun-14 06:30N 37°36' W 000°20'1 2.9
2018-Jun-14 06:00N 37°36' W 000°22'1 2.5
2018-Jun-14 05:30N 37°35' W 000°24'2 4.9
2018-Jun-14 05:00N 37°35' W 000°27'510.1
2018-Jun-14 04:30N 37°39' W 000°31'510.1
2018-Jun-14 04:00N 37°42' W 000°36'5 9.9
2018-Jun-14 03:30N 37°46' W 000°40'510.0
2018-Jun-14 03:00N 37°49' W 000°45'0 0.0
2018-Jun-13 15:48N 37°49' W 000°45'0 0.0
2018-Jun-13 15:31N 37°49' W 000°45'0 0.3
2018-Jun-13 15:00N 37°49' W 000°45'4 8.0
2018-Jun-13 14:30N 37°46' W 000°42'5 9.9
2018-Jun-13 14:00N 37°43' W 000°37'5 9.9
2018-Jun-13 13:30N 37°40' W 000°33'510.1
2018-Jun-13 12:58N 37°36' W 000°28'1 2.9
2018-Jun-13 12:30N 37°35' W 000°26'0 0.0
2018-Jun-13 11:58N 37°35' W 000°26'1 2.6
2018-Jun-13 11:28N 37°35' W 000°25'2 2.9
2018-Jun-13 10:51N 37°35' W 000°23'1 2.8
2018-Jun-13 10:26N 37°36' W 000°21'4 1.4
2018-Jun-13 07:42N 37°35' W 000°16'1 2.9
2018-Jun-13 07:30N 37°35' W 000°17'1 3.0
2018-Jun-13 07:00N 37°36' W 000°19'1 2.9
2018-Jun-13 06:31N 37°36' W 000°21'1 2.9
2018-Jun-13 06:00N 37°35' W 000°22'1 2.8
2018-Jun-13 05:30N 37°35' W 000°24'2 5.0
2018-Jun-13 05:01N 37°36' W 000°27'5 9.8
2018-Jun-13 04:30N 37°39' W 000°32'5 9.7
2018-Jun-13 04:00N 37°42' W 000°36'5 9.8
2018-Jun-13 03:31N 37°46' W 000°41'5 9.8
2018-Jun-13 03:01N 37°49' W 000°45'0 0.0
2018-Jun-12 15:48N 37°49' W 000°45'0 0.0
2018-Jun-12 15:30N 37°49' W 000°45'  

Dump ship's entire track history